createdAt,value
2023-04-03T00:02:19.650Z,31.16
2023-04-03T00:06:19.935Z,31.19
2023-04-03T00:10:20.394Z,31.12
2023-04-03T00:14:20.056Z,31.12
2023-04-03T00:18:20.449Z,31.10
2023-04-03T00:22:20.374Z,31.04
2023-04-03T00:26:20.965Z,31.05
2023-04-03T00:30:20.681Z,31.00
2023-04-03T00:34:20.933Z,31.00
2023-04-03T00:38:21.462Z,30.99
2023-04-03T00:42:21.072Z,30.97
2023-04-03T00:46:21.596Z,30.98
2023-04-03T00:50:21.428Z,30.95
2023-04-03T00:54:21.460Z,30.92
2023-04-03T00:58:21.601Z,30.93
2023-04-03T01:02:21.701Z,30.91
2023-04-03T01:06:21.944Z,30.88
2023-04-03T01:10:21.909Z,30.88
2023-04-03T01:14:22.412Z,30.83
2023-04-03T01:18:22.145Z,30.83
2023-04-03T01:22:22.143Z,30.79
2023-04-03T01:26:22.486Z,30.77
2023-04-03T01:30:22.287Z,30.72
2023-04-03T01:34:22.454Z,30.72
2023-04-03T01:38:22.491Z,30.72
2023-04-03T01:42:22.961Z,30.70
2023-04-03T01:46:22.943Z,30.69
2023-04-03T01:50:22.960Z,30.66
2023-04-03T01:54:22.963Z,30.65
2023-04-03T01:58:22.926Z,30.64
2023-04-03T02:02:22.948Z,30.62
2023-04-03T02:06:23.445Z,30.59
2023-04-03T02:10:23.114Z,30.55
2023-04-03T02:14:23.450Z,30.54
2023-04-03T02:18:23.161Z,30.55
2023-04-03T02:22:23.495Z,30.53
2023-04-03T02:26:23.479Z,30.47
2023-04-03T02:30:23.361Z,30.47
2023-04-03T02:34:23.347Z,30.40
2023-04-03T02:38:23.475Z,30.42
2023-04-03T02:42:23.481Z,30.36
2023-04-03T02:46:24.002Z,30.39
2023-04-03T02:50:24.003Z,30.32
2023-04-03T02:54:23.554Z,30.31
2023-04-03T02:58:24.457Z,30.29
2023-04-03T03:02:23.721Z,30.25
2023-04-03T03:06:24.012Z,30.24
2023-04-03T03:10:23.996Z,30.21
2023-04-03T03:14:23.831Z,30.20
2023-04-03T03:18:23.997Z,30.16
2023-04-03T03:22:23.998Z,30.12
2023-04-03T03:26:24.003Z,30.07
2023-04-03T03:30:24.477Z,30.10
2023-04-03T03:34:24.038Z,30.07
2023-04-03T03:38:24.470Z,30.08
2023-04-03T03:42:24.510Z,30.00
2023-04-03T03:46:24.491Z,29.95
2023-04-03T03:50:24.276Z,29.97
2023-04-03T03:54:24.483Z,29.94
2023-04-03T03:58:24.495Z,29.89
2023-04-03T04:02:24.546Z,29.87
2023-04-03T04:06:24.528Z,29.90
2023-04-03T04:10:24.594Z,29.86
2023-04-03T04:14:24.643Z,29.82
2023-04-03T04:18:25.020Z,29.83
2023-04-03T04:22:25.026Z,29.77
2023-04-03T04:26:25.010Z,29.78
2023-04-03T04:30:24.956Z,29.81
2023-04-03T04:34:25.522Z,29.75
2023-04-03T04:38:25.113Z,29.75
2023-04-03T04:42:25.512Z,29.73
2023-04-03T04:46:25.272Z,29.67
2023-04-03T04:50:25.336Z,29.64
2023-04-03T04:54:25.497Z,29.68
2023-04-03T04:58:25.522Z,29.67
2023-04-03T05:02:25.664Z,29.58
2023-04-03T05:06:25.762Z,29.57
2023-04-03T05:10:25.832Z,29.63
2023-04-03T05:14:26.018Z,29.58
2023-04-03T05:18:26.052Z,29.58
2023-04-03T05:22:26.537Z,29.59
2023-04-03T05:26:26.214Z,29.55
2023-04-03T05:30:26.290Z,29.55
2023-04-03T05:34:26.528Z,29.52
2023-04-03T05:38:26.543Z,29.51
2023-04-03T05:42:27.027Z,29.52
2023-04-03T05:46:26.710Z,29.51
2023-04-03T05:50:27.020Z,29.45
2023-04-03T05:54:27.056Z,29.45
2023-04-03T05:58:26.990Z,29.38
2023-04-03T06:02:27.193Z,29.39
2023-04-03T06:06:27.153Z,29.38
2023-04-03T06:10:27.572Z,29.39
2023-04-03T06:14:27.315Z,29.38
2023-04-03T06:18:27.517Z,29.36
2023-04-03T06:22:27.552Z,29.33
2023-04-03T06:26:27.601Z,29.35
2023-04-03T06:30:28.071Z,29.30
2023-04-03T06:34:28.050Z,29.33
2023-04-03T06:38:28.008Z,29.30
2023-04-03T06:42:28.539Z,29.31
2023-04-03T06:46:28.370Z,29.29
2023-04-03T06:50:28.521Z,29.27
2023-04-03T06:54:28.553Z,29.29
2023-04-03T06:58:29.054Z,29.31
2023-04-03T07:02:28.860Z,29.28
2023-04-03T07:06:28.993Z,29.35
2023-04-03T07:10:29.171Z,29.30
2023-04-03T07:14:29.544Z,29.31
2023-04-03T07:18:29.606Z,29.40
2023-04-03T07:22:30.048Z,29.34
2023-04-03T07:26:29.742Z,29.31
2023-04-03T07:30:29.895Z,29.33
2023-04-03T07:34:30.540Z,29.36
2023-04-03T07:38:30.241Z,29.30
2023-04-03T07:42:30.387Z,29.26
2023-04-03T07:46:30.549Z,29.31
2023-04-03T07:50:31.184Z,29.30
2023-04-03T07:54:30.934Z,29.34
2023-04-03T07:58:31.569Z,29.31
2023-04-03T08:02:31.275Z,29.31
2023-04-03T08:06:44.929Z,29.33
2023-04-03T08:10:32.569Z,29.31
2023-04-03T08:14:31.359Z,29.29
2023-04-03T08:18:31.576Z,29.29
2023-04-03T08:22:31.724Z,29.31
2023-04-03T08:26:32.066Z,29.29
2023-04-03T08:30:31.991Z,29.23
2023-04-03T08:34:32.604Z,29.26
2023-04-03T08:38:32.584Z,29.25
2023-04-03T08:42:32.477Z,29.33
2023-04-03T08:46:33.152Z,29.26
2023-04-03T08:50:33.071Z,29.36
2023-04-03T08:54:35.063Z,29.38
2023-04-03T08:58:33.609Z,29.26
2023-04-03T09:02:33.341Z,29.23
2023-04-03T09:06:33.616Z,29.29
2023-04-03T09:10:34.174Z,29.23
2023-04-03T09:14:33.767Z,29.17
2023-04-03T09:18:33.905Z,29.15
2023-04-03T09:22:36.586Z,29.12
2023-04-03T09:26:35.182Z,29.13
2023-04-03T09:30:34.088Z,29.08
2023-04-03T09:34:34.099Z,28.98
2023-04-03T09:38:34.297Z,28.93
2023-04-03T09:42:34.695Z,28.85
2023-04-03T09:46:35.218Z,28.85
2023-04-03T09:50:35.137Z,28.78
2023-04-03T09:54:35.027Z,28.73
2023-04-03T09:58:46.728Z,28.82
2023-04-03T10:02:36.236Z,28.65
2023-04-03T10:06:35.609Z,28.62
2023-04-03T10:10:35.702Z,28.59
2023-04-03T10:14:35.465Z,28.55
2023-04-03T10:18:35.601Z,28.46
2023-04-03T10:22:36.098Z,28.54
2023-04-03T10:26:36.090Z,28.43
2023-04-03T10:30:36.527Z,28.45
2023-04-03T10:34:36.328Z,28.38
2023-04-03T10:38:36.474Z,28.35
2023-04-03T10:42:37.126Z,28.24
2023-04-03T10:46:37.222Z,28.24
2023-04-03T10:50:37.299Z,28.25
2023-04-03T10:54:37.246Z,28.15
2023-04-03T10:58:37.510Z,28.18
2023-04-03T11:02:37.816Z,28.15
2023-04-03T11:06:38.135Z,28.13
2023-04-03T11:10:38.006Z,28.06
2023-04-03T11:14:38.191Z,28.04
2023-04-03T11:18:38.763Z,27.98
2023-04-03T11:22:38.636Z,27.97
2023-04-03T11:26:39.137Z,27.98
2023-04-03T11:30:39.150Z,27.87
2023-04-03T11:34:39.250Z,27.91
2023-04-03T11:38:39.628Z,27.90
2023-04-03T11:42:39.687Z,27.85
2023-04-03T11:46:40.168Z,27.73
2023-04-03T11:50:40.103Z,27.82
2023-04-03T11:54:44.680Z,27.77
2023-04-03T11:58:41.133Z,27.77
2023-04-03T12:02:51.097Z,27.72
2023-04-03T12:06:41.247Z,27.57
2023-04-03T12:10:40.164Z,27.62
2023-04-03T12:14:40.105Z,27.53
2023-04-03T12:18:40.169Z,27.53
2023-04-03T12:22:40.268Z,27.51
2023-04-03T12:26:48.145Z,27.47
2023-04-03T12:30:40.973Z,27.39
2023-04-03T12:34:39.980Z,27.36
2023-04-03T12:38:40.753Z,27.38
2023-04-03T12:42:40.661Z,27.30
2023-04-03T12:46:40.776Z,27.35
2023-04-03T12:50:40.820Z,27.29
2023-04-03T12:54:41.121Z,27.31
2023-04-03T12:58:41.668Z,27.28
2023-04-03T13:02:48.759Z,27.22
2023-04-03T13:06:41.739Z,27.23
2023-04-03T13:10:41.395Z,27.11
2023-04-03T13:14:41.742Z,27.13
2023-04-03T13:18:41.200Z,27.11
2023-04-03T13:22:41.200Z,27.19
2023-04-03T13:26:41.289Z,27.09
2023-04-03T13:30:41.191Z,27.10
2023-04-03T13:34:41.701Z,27.10
2023-04-03T13:38:41.696Z,27.08
2023-04-03T13:42:41.715Z,27.20
2023-04-03T13:46:42.213Z,27.15
2023-04-03T13:50:41.907Z,27.09
2023-04-03T13:54:42.203Z,27.05
2023-04-03T13:58:42.200Z,27.04
2023-04-03T14:02:42.762Z,27.18
2023-04-03T14:06:42.712Z,27.17
2023-04-03T14:10:42.428Z,27.13
2023-04-03T14:14:42.713Z,27.10
2023-04-03T14:18:42.693Z,27.16
2023-04-03T14:22:42.690Z,27.11
2023-04-03T14:26:42.752Z,27.05
2023-04-03T14:30:42.817Z,27.00
2023-04-03T14:34:43.264Z,26.94
2023-04-03T14:38:43.222Z,26.93
2023-04-03T14:42:43.213Z,26.92
2023-04-03T14:46:55.418Z,27.03
2023-04-03T14:50:51.656Z,26.81
2023-04-03T14:54:44.232Z,26.79
2023-04-03T14:58:43.219Z,26.88
2023-04-03T15:02:43.419Z,26.72
2023-04-03T15:06:42.861Z,26.75
2023-04-03T15:10:42.820Z,26.75
2023-04-03T15:14:51.856Z,26.63
2023-04-03T15:18:44.364Z,26.65
2023-04-03T15:22:43.243Z,26.62
2023-04-03T15:26:43.038Z,26.54
2023-04-03T15:30:43.131Z,26.60
2023-04-03T15:34:43.299Z,26.52
2023-04-03T15:38:43.748Z,26.54
2023-04-03T15:42:43.349Z,26.46
2023-04-03T15:46:43.769Z,26.44
2023-04-03T15:50:43.757Z,26.41
2023-04-03T15:54:43.754Z,26.47
2023-04-03T15:58:43.636Z,26.35
2023-04-03T16:02:43.783Z,26.43
2023-04-03T16:06:43.750Z,26.43
2023-04-03T16:10:44.757Z,26.38
2023-04-03T16:14:43.855Z,26.39
2023-04-03T16:18:44.292Z,26.35
2023-04-03T16:22:44.013Z,26.33
2023-04-03T16:26:44.243Z,26.35
2023-04-03T16:30:44.269Z,26.42
2023-04-03T16:34:45.046Z,26.35
2023-04-03T16:38:44.753Z,26.34
2023-04-03T16:42:44.386Z,26.34
2023-04-03T16:46:45.691Z,26.32
2023-04-03T16:50:44.757Z,26.28
2023-04-03T16:54:44.591Z,26.28
2023-04-03T16:58:44.784Z,26.31
2023-04-03T17:02:44.788Z,26.29
2023-04-03T17:06:45.281Z,26.31
2023-04-03T17:10:45.336Z,26.29
2023-04-03T17:14:45.294Z,26.23
2023-04-03T17:18:45.281Z,26.24
2023-04-03T17:22:45.143Z,26.24
2023-04-03T17:26:45.257Z,26.20
2023-04-03T17:30:45.773Z,26.31
2023-04-03T17:34:45.777Z,26.30
2023-04-03T17:38:45.512Z,26.25
2023-04-03T17:42:45.796Z,26.35
2023-04-03T17:46:45.775Z,26.22
2023-04-03T17:50:45.800Z,26.26
2023-04-03T17:54:46.291Z,26.28
2023-04-03T17:58:46.002Z,26.13
2023-04-03T18:02:46.093Z,26.16
2023-04-03T18:06:46.294Z,26.26
2023-04-03T18:10:46.291Z,26.28
2023-04-03T18:14:46.386Z,26.28
2023-04-03T18:18:46.739Z,26.22
2023-04-03T18:22:46.888Z,26.24
2023-04-03T18:26:46.818Z,26.17
2023-04-03T18:30:47.312Z,26.16
2023-04-03T18:34:47.329Z,26.10
2023-04-03T18:38:47.139Z,26.10
2023-04-03T18:42:47.294Z,26.05
2023-04-03T18:46:47.811Z,26.12
2023-04-03T18:50:47.860Z,25.99
2023-04-03T18:54:47.782Z,26.00
2023-04-03T18:58:47.760Z,26.07
2023-04-03T19:02:47.988Z,25.90
2023-04-03T19:06:48.319Z,25.93
2023-04-03T19:15:04.114Z,26.06
2023-04-03T19:19:03.866Z,25.96
2023-04-03T19:23:04.139Z,25.86
2023-04-03T19:27:03.775Z,25.91
2023-04-03T19:31:04.123Z,25.91
2023-04-03T19:35:04.150Z,25.96
2023-04-03T19:39:03.697Z,25.80
2023-04-03T19:43:04.125Z,25.83
2023-04-03T19:47:03.631Z,25.88
2023-04-03T19:51:03.614Z,25.77
2023-04-03T19:55:03.646Z,25.88
2023-04-03T19:59:03.554Z,25.71
2023-04-03T20:03:03.707Z,25.76
2023-04-03T20:07:03.395Z,25.68
2023-04-03T20:11:03.633Z,25.78
2023-04-03T20:15:03.319Z,25.62
2023-04-03T20:19:03.658Z,25.60
2023-04-03T20:23:03.282Z,25.60
2023-04-03T20:27:03.662Z,25.52
2023-04-03T20:31:03.665Z,25.57
2023-04-03T20:35:04.780Z,25.58
2023-04-03T20:39:03.683Z,25.58
2023-04-03T20:43:03.664Z,25.56
2023-04-03T20:47:04.172Z,25.57
2023-04-03T20:51:04.230Z,25.51
2023-04-03T20:55:03.853Z,25.50
2023-04-03T20:59:03.955Z,25.49
2023-04-03T21:03:04.254Z,25.48
2023-04-03T21:07:04.091Z,25.47
2023-04-03T21:11:04.667Z,25.51
2023-04-03T21:15:04.288Z,25.45
2023-04-03T21:19:04.349Z,25.48
2023-04-03T21:23:04.660Z,25.53
2023-04-03T21:27:05.001Z,25.50
2023-04-03T21:31:04.639Z,25.46
2023-04-03T21:35:05.156Z,25.43
2023-04-03T21:39:04.798Z,25.44
2023-04-03T21:43:05.168Z,25.42
2023-04-03T21:47:05.241Z,25.44
2023-04-03T21:51:05.069Z,25.49
2023-04-03T21:55:05.197Z,25.45
2023-04-03T21:59:05.833Z,25.41
2023-04-03T22:03:10.447Z,25.44
2023-04-03T22:07:06.359Z,25.48
2023-04-03T22:11:05.246Z,25.47
2023-04-03T22:15:05.700Z,25.42
2023-04-03T22:19:05.169Z,25.47
2023-04-03T22:23:05.675Z,25.42
2023-04-03T22:27:05.672Z,25.45
2023-04-03T22:31:05.445Z,25.41
2023-04-03T22:35:05.726Z,25.41
2023-04-03T22:39:07.000Z,25.36
2023-04-03T22:43:05.769Z,25.38
2023-04-03T22:47:06.207Z,25.41
2023-04-03T22:51:05.886Z,25.35
2023-04-03T22:55:16.538Z,25.36
2023-04-03T22:59:07.075Z,25.34
2023-04-03T23:03:06.267Z,25.31
2023-04-03T23:07:05.941Z,25.33
2023-04-03T23:11:06.208Z,25.32
2023-04-03T23:15:06.098Z,25.32
2023-04-03T23:19:06.187Z,25.27
2023-04-03T23:23:06.307Z,25.31
2023-04-03T23:27:06.353Z,25.28
2023-04-03T23:31:06.728Z,25.28
2023-04-03T23:35:07.069Z,25.25
2023-04-03T23:39:06.684Z,25.18
2023-04-03T23:43:07.218Z,25.19
2023-04-03T23:47:06.906Z,25.18
2023-04-03T23:51:07.211Z,25.16
2023-04-03T23:55:07.145Z,25.08
2023-04-03T23:59:07.732Z,25.09
